Beale Air Force Base
KBAB : now visible

Airfield :











YOU CAN JOIN US ON...

 
LOGIN :

Register | Disclaimer

   EN    FR    IT 

 









Legend :    VFR   Marginal VFR   IFR   Intensive IFR   Very Intensive IFR
Visi :
Ceiling :
>= 8 km
>= 3000ft
5 to 8 km
1000 to 3000 ft
1500m to 5 km
500 to 1000 ft
800 to 1500m
200 to 500 ft
< 800m
< 200 ft
Symbols :   Thunderstorms  Fog  Heavy snow  Heavy precipitations  Wind > 20 kt






- Airport Elevation : 113 ft


KBAB - Beale Air Force Base

CURRENT METAR :
  • 051856Z AUTO 00000KT 7SM CLR 15/11 A3011 RMK AO2 SLP199 T01490111 $

EXPIRED METARs :
  • 051756Z AUTO 00000KT 7SM CLR 13/13 A3011 RMK AO2 SLP199 T01340134 10134 20086 52020 $
  • 051733Z AUTO 00000KT 4SM BR FEW002 13/13 A3011 RMK AO2 SLP199 $
  • 051718Z COR AUTO 00000KT 4SM BR SCT002 12/12 A3010 RMK AO2 VIS 1/4V2 SLP196 $ COR 1733
  • 051713Z AUTO 00000KT 7/8SM R15/1800VP6000FT BR FEW001 12/12 A3010 RMK AO2 VIS 1/8V7/8 SLP196 $
  • 051702Z 00000KT 3SM BR FEW040 FEW100 11/11 A3010 RMK AO2A VIS W 2 1/2 SM SLPNO $
  • 051628Z AUTO 00000KT M1/8SM R15/0400V1200FT FG FEW000 10/10 A3009 RMK AO2 SLP193 $

TAF TAF KBAB
Valid from the 05 at 19:00 until the 07 at 01:00 UTC


051900Z 0519/0701 VRB06KT 9999 SKC QNH3004INS
BECMG 0522/0523 VRB06KT 9999 BKN040 QNH3002INS
BECMG 0611/0612 VRB06KT 8000 BR BKN045 QNH2997INS TX17/0521Z TN12/0612Z



MET'MAP, your aeronautical weather chart ! - Copyright ORBIFLY December 2007 - Disclaimer

ORBIFLY MET'MAP TEAM :

Programming & Development : Alexandra Zaïnal
Concept & original design : Baudouin d'Aumeries
Assistance for programming : Marc-Olivier Méhu
Technical & hardware support : Manuel Goepfert

Contact : metmap@orbifly.com




SOURCES & CREDITS :

   NOAA       Earth
Advisory